Terminal Aerodrome Forecast
Issued by NWS

Current Version | Previous Version | Text Only | Print | Product List | Glossary Off
Versions: 1 2 3 4 5 6 7 8 9 10 11 12 13 14 15 16 17 18 19 20 21 22 23 24 25

000
FTUS41 KILN 212055 AAA
TAFLUK
TAF AMD
KLUK 212055Z 2121/2218 01011KT P6SM -SHRA OVC012
     FM220200 03013KT 2SM -SHRA BR OVC009
     FM221400 06010KT P6SM OVC012=

USA.gov is the U.S. government's official web portal to all federal, state and local government web resources and services.